sensor_id;sensor_type;location;lat;lon;timestamp;temperature;humidity
70534;SHT31;58088;51.186;17.130;2023-02-08T00:00:49;1.04;62.58
70534;SHT31;58088;51.186;17.130;2023-02-08T00:03:16;1.02;62.60
70534;SHT31;58088;51.186;17.130;2023-02-08T00:05:42;1.00;62.65
70534;SHT31;58088;51.186;17.130;2023-02-08T00:08:09;0.99;62.79
70534;SHT31;58088;51.186;17.130;2023-02-08T00:10:35;1.01;62.89
70534;SHT31;58088;51.186;17.130;2023-02-08T00:13:02;1.03;62.79
70534;SHT31;58088;51.186;17.130;2023-02-08T00:15:28;0.99;62.71
70534;SHT31;58088;51.186;17.130;2023-02-08T00:17:54;0.96;62.79
70534;SHT31;58088;51.186;17.130;2023-02-08T00:20:21;1.00;62.82
70534;SHT31;58088;51.186;17.130;2023-02-08T00:22:47;1.01;62.73
70534;SHT31;58088;51.186;17.130;2023-02-08T00:25:13;1.02;62.78
70534;SHT31;58088;51.186;17.130;2023-02-08T00:27:40;1.03;62.78
70534;SHT31;58088;51.186;17.130;2023-02-08T00:30:06;1.09;62.80
70534;SHT31;58088;51.186;17.130;2023-02-08T00:32:33;1.16;62.83
70534;SHT31;58088;51.186;17.130;2023-02-08T00:35:00;1.21;62.77
70534;SHT31;58088;51.186;17.130;2023-02-08T00:37:26;1.22;62.76
70534;SHT31;58088;51.186;17.130;2023-02-08T00:39:52;1.22;62.81
70534;SHT31;58088;51.186;17.130;2023-02-08T00:42:18;1.20;62.97
70534;SHT31;58088;51.186;17.130;2023-02-08T00:44:45;1.18;63.00
70534;SHT31;58088;51.186;17.130;2023-02-08T00:47:11;1.15;63.07
70534;SHT31;58088;51.186;17.130;2023-02-08T00:49:37;1.13;63.11
70534;SHT31;58088;51.186;17.130;2023-02-08T00:52:03;1.10;63.17
70534;SHT31;58088;51.186;17.130;2023-02-08T00:54:30;1.04;63.30
70534;SHT31;58088;51.186;17.130;2023-02-08T00:56:56;0.98;63.46
70534;SHT31;58088;51.186;17.130;2023-02-08T00:59:23;0.90;63.55
70534;SHT31;58088;51.186;17.130;2023-02-08T01:01:50;0.88;63.60
70534;SHT31;58088;51.186;17.130;2023-02-08T01:04:17;0.88;63.60
70534;SHT31;58088;51.186;17.130;2023-02-08T01:06:43;0.91;63.70
70534;SHT31;58088;51.186;17.130;2023-02-08T01:09:10;0.91;63.70
70534;SHT31;58088;51.186;17.130;2023-02-08T01:11:36;0.94;63.71
70534;SHT31;58088;51.186;17.130;2023-02-08T01:14:03;0.93;63.63
70534;SHT31;58088;51.186;17.130;2023-02-08T01:16:30;0.89;63.48
70534;SHT31;58088;51.186;17.130;2023-02-08T01:18:59;0.87;63.11
70534;SHT31;58088;51.186;17.130;2023-02-08T01:21:29;0.88;62.94
70534;SHT31;58088;51.186;17.130;2023-02-08T01:24:01;0.88;62.93
70534;SHT31;58088;51.186;17.130;2023-02-08T01:26:28;0.90;62.93
70534;SHT31;58088;51.186;17.130;2023-02-08T01:28:56;0.93;62.78
70534;SHT31;58088;51.186;17.130;2023-02-08T01:31:25;0.90;62.56
70534;SHT31;58088;51.186;17.130;2023-02-08T01:33:55;0.93;62.62
70534;SHT31;58088;51.186;17.130;2023-02-08T01:36:23;0.98;62.56
70534;SHT31;58088;51.186;17.130;2023-02-08T01:38:51;1.00;62.50
70534;SHT31;58088;51.186;17.130;2023-02-08T01:41:19;1.03;62.44
70534;SHT31;58088;51.186;17.130;2023-02-08T01:46:42;1.01;62.36
70534;SHT31;58088;51.186;17.130;2023-02-08T01:51:56;1.00;62.27
70534;SHT31;58088;51.186;17.130;2023-02-08T01:54:34;0.98;62.31
70534;SHT31;58088;51.186;17.130;2023-02-08T01:57:05;0.97;62.35
70534;SHT31;58088;51.186;17.130;2023-02-08T01:59:33;0.99;62.27
70534;SHT31;58088;51.186;17.130;2023-02-08T02:02:09;1.00;62.15
70534;SHT31;58088;51.186;17.130;2023-02-08T02:04:59;1.00;62.09
70534;SHT31;58088;51.186;17.130;2023-02-08T02:07:27;1.03;62.12
70534;SHT31;58088;51.186;17.130;2023-02-08T02:12:35;1.01;62.19
70534;SHT31;58088;51.186;17.130;2023-02-08T02:15:05;1.00;62.08
70534;SHT31;58088;51.186;17.130;2023-02-08T02:17:34;0.98;61.92
70534;SHT31;58088;51.186;17.130;2023-02-08T02:22:44;0.90;61.93
70534;SHT31;58088;51.186;17.130;2023-02-08T02:43:40;0.99;61.57
70534;SHT31;58088;51.186;17.130;2023-02-08T02:46:18;0.97;61.63
70534;SHT31;58088;51.186;17.130;2023-02-08T02:49:26;0.96;61.66
70534;SHT31;58088;51.186;17.130;2023-02-08T02:52:34;0.98;61.64
70534;SHT31;58088;51.186;17.130;2023-02-08T02:55:12;0.99;61.51
70534;SHT31;58088;51.186;17.130;2023-02-08T02:57:43;1.05;61.52
70534;SHT31;58088;51.186;17.130;2023-02-08T03:00:17;1.07;61.34
70534;SHT31;58088;51.186;17.130;2023-02-08T03:02:48;1.07;61.40
70534;SHT31;58088;51.186;17.130;2023-02-08T03:05:14;1.11;61.30
70534;SHT31;58088;51.186;17.130;2023-02-08T03:21:42;1.22;61.12
70534;SHT31;58088;51.186;17.130;2023-02-08T03:30:19;1.36;60.96
70534;SHT31;58088;51.186;17.130;2023-02-08T03:32:59;1.36;60.86
70534;SHT31;58088;51.186;17.130;2023-02-08T03:35:37;1.38;60.92
70534;SHT31;58088;51.186;17.130;2023-02-08T03:38:28;1.40;60.80
70534;SHT31;58088;51.186;17.130;2023-02-08T03:41:11;1.41;60.70
70534;SHT31;58088;51.186;17.130;2023-02-08T03:43:45;1.45;60.78
70534;SHT31;58088;51.186;17.130;2023-02-08T03:46:24;1.50;60.84
70534;SHT31;58088;51.186;17.130;2023-02-08T03:49:00;1.57;60.78
70534;SHT31;58088;51.186;17.130;2023-02-08T03:51:33;1.60;60.70
70534;SHT31;58088;51.186;17.130;2023-02-08T03:54:05;1.65;60.84
70534;SHT31;58088;51.186;17.130;2023-02-08T03:59:16;1.63;60.37
70534;SHT31;58088;51.186;17.130;2023-02-08T04:01:59;1.58;60.31
70534;SHT31;58088;51.186;17.130;2023-02-08T04:04:30;1.56;60.32
70534;SHT31;58088;51.186;17.130;2023-02-08T04:07:01;1.55;60.33
70534;SHT31;58088;51.186;17.130;2023-02-08T04:09:27;1.53;60.24
70534;SHT31;58088;51.186;17.130;2023-02-08T04:11:54;1.52;60.21
70534;SHT31;58088;51.186;17.130;2023-02-08T04:14:21;1.50;60.21
70534;SHT31;58088;51.186;17.130;2023-02-08T04:16:47;1.53;60.30
70534;SHT31;58088;51.186;17.130;2023-02-08T04:19:13;1.55;60.24
70534;SHT31;58088;51.186;17.130;2023-02-08T04:21:40;1.55;60.20
70534;SHT31;58088;51.186;17.130;2023-02-08T04:24:06;1.54;60.26
70534;SHT31;58088;51.186;17.130;2023-02-08T04:26:32;1.51;60.41
70534;SHT31;58088;51.186;17.130;2023-02-08T04:28:59;1.50;60.53
70534;SHT31;58088;51.186;17.130;2023-02-08T04:31:25;1.48;60.53
70534;SHT31;58088;51.186;17.130;2023-02-08T04:33:52;1.48;60.73
70534;SHT31;58088;51.186;17.130;2023-02-08T04:36:18;1.52;60.84
70534;SHT31;58088;51.186;17.130;2023-02-08T04:38:44;1.53;60.82
70534;SHT31;58088;51.186;17.130;2023-02-08T04:41:10;1.55;60.83
70534;SHT31;58088;51.186;17.130;2023-02-08T04:43:36;1.58;60.84
70534;SHT31;58088;51.186;17.130;2023-02-08T04:46:02;1.64;60.79
70534;SHT31;58088;51.186;17.130;2023-02-08T04:48:29;1.75;60.77
70534;SHT31;58088;51.186;17.130;2023-02-08T04:50:56;1.79;60.58
70534;SHT31;58088;51.186;17.130;2023-02-08T04:53:23;1.75;60.48
70534;SHT31;58088;51.186;17.130;2023-02-08T04:55:50;1.75;60.57
70534;SHT31;58088;51.186;17.130;2023-02-08T04:58:17;1.76;60.62
70534;SHT31;58088;51.186;17.130;2023-02-08T05:00:43;1.77;60.70
70534;SHT31;58088;51.186;17.130;2023-02-08T05:03:10;1.75;60.67
70534;SHT31;58088;51.186;17.130;2023-02-08T05:05:37;1.76;60.70
70534;SHT31;58088;51.186;17.130;2023-02-08T05:08:04;1.73;60.64
70534;SHT31;58088;51.186;17.130;2023-02-08T05:10:30;1.76;60.75
70534;SHT31;58088;51.186;17.130;2023-02-08T05:12:56;1.75;60.70
70534;SHT31;58088;51.186;17.130;2023-02-08T05:15:22;1.77;60.68
70534;SHT31;58088;51.186;17.130;2023-02-08T05:17:49;1.83;60.78
70534;SHT31;58088;51.186;17.130;2023-02-08T05:20:15;1.88;60.82
70534;SHT31;58088;51.186;17.130;2023-02-08T05:22:41;1.89;60.86
70534;SHT31;58088;51.186;17.130;2023-02-08T05:25:07;1.89;60.96
70534;SHT31;58088;51.186;17.130;2023-02-08T05:27:35;1.88;60.82
70534;SHT31;58088;51.186;17.130;2023-02-08T05:30:02;1.87;60.80
70534;SHT31;58088;51.186;17.130;2023-02-08T05:32:29;1.84;60.85
70534;SHT31;58088;51.186;17.130;2023-02-08T05:34:55;1.83;60.81
70534;SHT31;58088;51.186;17.130;2023-02-08T05:37:21;1.80;60.84
70534;SHT31;58088;51.186;17.130;2023-02-08T05:39:47;1.78;60.90
70534;SHT31;58088;51.186;17.130;2023-02-08T05:42:14;1.74;60.91
70534;SHT31;58088;51.186;17.130;2023-02-08T05:44:40;1.71;60.98
70534;SHT31;58088;51.186;17.130;2023-02-08T05:47:06;1.65;61.03
70534;SHT31;58088;51.186;17.130;2023-02-08T05:49:32;1.58;61.10
70534;SHT31;58088;51.186;17.130;2023-02-08T05:51:58;1.53;61.07
70534;SHT31;58088;51.186;17.130;2023-02-08T05:54:24;1.50;61.09
70534;SHT31;58088;51.186;17.130;2023-02-08T05:56:50;1.48;61.07
70534;SHT31;58088;51.186;17.130;2023-02-08T05:59:17;1.45;60.95
70534;SHT31;58088;51.186;17.130;2023-02-08T06:01:43;1.40;61.14
70534;SHT31;58088;51.186;17.130;2023-02-08T06:04:09;1.36;61.23
70534;SHT31;58088;51.186;17.130;2023-02-08T06:06:36;1.27;61.31
70534;SHT31;58088;51.186;17.130;2023-02-08T06:09:02;1.21;61.37
70534;SHT31;58088;51.186;17.130;2023-02-08T06:11:29;1.16;61.35
70534;SHT31;58088;51.186;17.130;2023-02-08T06:13:55;1.09;61.39
70534;SHT31;58088;51.186;17.130;2023-02-08T06:16:22;1.02;61.38
70534;SHT31;58088;51.186;17.130;2023-02-08T06:18:48;0.96;61.31
70534;SHT31;58088;51.186;17.130;2023-02-08T06:21:14;0.88;61.39
70534;SHT31;58088;51.186;17.130;2023-02-08T06:23:40;0.78;61.39
70534;SHT31;58088;51.186;17.130;2023-02-08T06:26:07;0.71;61.60
70534;SHT31;58088;51.186;17.130;2023-02-08T06:28:33;0.65;61.87
70534;SHT31;58088;51.186;17.130;2023-02-08T06:30:59;0.61;62.02
70534;SHT31;58088;51.186;17.130;2023-02-08T06:33:25;0.57;62.10
70534;SHT31;58088;51.186;17.130;2023-02-08T06:35:51;0.52;62.25
70534;SHT31;58088;51.186;17.130;2023-02-08T06:38:18;0.43;62.48
70534;SHT31;58088;51.186;17.130;2023-02-08T06:40:45;0.40;62.58
70534;SHT31;58088;51.186;17.130;2023-02-08T06:43:14;0.38;62.80
70534;SHT31;58088;51.186;17.130;2023-02-08T06:45:43;0.33;63.06
70534;SHT31;58088;51.186;17.130;2023-02-08T06:48:11;0.29;63.13
70534;SHT31;58088;51.186;17.130;2023-02-08T06:50:37;0.25;63.29
70534;SHT31;58088;51.186;17.130;2023-02-08T06:53:04;0.19;63.54
70534;SHT31;58088;51.186;17.130;2023-02-08T06:55:30;0.13;63.77
70534;SHT31;58088;51.186;17.130;2023-02-08T06:57:56;0.10;63.89
70534;SHT31;58088;51.186;17.130;2023-02-08T07:00:23;0.10;64.02
70534;SHT31;58088;51.186;17.130;2023-02-08T07:02:50;0.04;64.27
70534;SHT31;58088;51.186;17.130;2023-02-08T07:05:17;0.02;64.43
70534;SHT31;58088;51.186;17.130;2023-02-08T07:07:43;0.00;64.59
70534;SHT31;58088;51.186;17.130;2023-02-08T07:10:09;-0.01;64.73
70534;SHT31;58088;51.186;17.130;2023-02-08T07:12:36;-0.03;64.92
70534;SHT31;58088;51.186;17.130;2023-02-08T07:15:03;-0.02;65.05
70534;SHT31;58088;51.186;17.130;2023-02-08T07:17:29;-0.02;65.21
70534;SHT31;58088;51.186;17.130;2023-02-08T07:19:55;-0.05;65.37
70534;SHT31;58088;51.186;17.130;2023-02-08T07:22:22;-0.11;65.48
70534;SHT31;58088;51.186;17.130;2023-02-08T07:24:48;-0.08;65.58
70534;SHT31;58088;51.186;17.130;2023-02-08T07:27:14;-0.04;65.70
70534;SHT31;58088;51.186;17.130;2023-02-08T07:29:41;0.00;65.74
70534;SHT31;58088;51.186;17.130;2023-02-08T07:32:08;0.02;65.90
70534;SHT31;58088;51.186;17.130;2023-02-08T07:34:36;0.02;66.06
70534;SHT31;58088;51.186;17.130;2023-02-08T07:37:03;0.05;66.07
70534;SHT31;58088;51.186;17.130;2023-02-08T07:39:29;0.06;66.00
70534;SHT31;58088;51.186;17.130;2023-02-08T07:41:56;0.06;66.16
70534;SHT31;58088;51.186;17.130;2023-02-08T07:44:26;0.08;66.30
70534;SHT31;58088;51.186;17.130;2023-02-08T07:46:53;0.11;66.33
70534;SHT31;58088;51.186;17.130;2023-02-08T07:49:19;0.14;66.36
70534;SHT31;58088;51.186;17.130;2023-02-08T07:51:45;0.20;66.29
70534;SHT31;58088;51.186;17.130;2023-02-08T07:54:11;0.25;66.30
70534;SHT31;58088;51.186;17.130;2023-02-08T07:56:37;0.29;66.35
70534;SHT31;58088;51.186;17.130;2023-02-08T07:59:03;0.32;66.43
70534;SHT31;58088;51.186;17.130;2023-02-08T08:01:30;0.36;66.54
70534;SHT31;58088;51.186;17.130;2023-02-08T08:03:56;0.43;66.52
70534;SHT31;58088;51.186;17.130;2023-02-08T08:06:23;0.48;66.41
70534;SHT31;58088;51.186;17.130;2023-02-08T08:08:49;0.54;66.47
70534;SHT31;58088;51.186;17.130;2023-02-08T08:11:17;0.59;66.46
70534;SHT31;58088;51.186;17.130;2023-02-08T08:13:44;0.65;66.53
70534;SHT31;58088;51.186;17.130;2023-02-08T08:16:11;0.70;66.48
70534;SHT31;58088;51.186;17.130;2023-02-08T08:18:38;0.78;66.36
70534;SHT31;58088;51.186;17.130;2023-02-08T08:21:04;0.84;66.36
70534;SHT31;58088;51.186;17.130;2023-02-08T08:23:31;0.90;66.27
70534;SHT31;58088;51.186;17.130;2023-02-08T08:25:58;0.96;66.35
70534;SHT31;58088;51.186;17.130;2023-02-08T08:28:25;1.04;66.30
70534;SHT31;58088;51.186;17.130;2023-02-08T08:30:52;1.10;66.20
70534;SHT31;58088;51.186;17.130;2023-02-08T08:33:19;1.19;66.11
70534;SHT31;58088;51.186;17.130;2023-02-08T08:35:45;1.25;66.00
70534;SHT31;58088;51.186;17.130;2023-02-08T08:38:11;1.34;65.93
70534;SHT31;58088;51.186;17.130;2023-02-08T08:40:38;1.38;65.78
70534;SHT31;58088;51.186;17.130;2023-02-08T08:43:04;1.40;65.77
70534;SHT31;58088;51.186;17.130;2023-02-08T08:45:31;1.42;65.76
70534;SHT31;58088;51.186;17.130;2023-02-08T08:47:58;1.47;65.83
70534;SHT31;58088;51.186;17.130;2023-02-08T08:50:25;1.49;65.84
70534;SHT31;58088;51.186;17.130;2023-02-08T08:52:52;1.51;65.96
70534;SHT31;58088;51.186;17.130;2023-02-08T08:55:18;1.56;66.05
70534;SHT31;58088;51.186;17.130;2023-02-08T08:57:44;1.58;66.03
70534;SHT31;58088;51.186;17.130;2023-02-08T09:00:10;1.62;66.14
70534;SHT31;58088;51.186;17.130;2023-02-08T09:02:38;1.69;66.12
70534;SHT31;58088;51.186;17.130;2023-02-08T09:05:04;1.73;66.09
70534;SHT31;58088;51.186;17.130;2023-02-08T09:07:32;1.75;66.09
70534;SHT31;58088;51.186;17.130;2023-02-08T09:09:59;1.75;66.06
70534;SHT31;58088;51.186;17.130;2023-02-08T09:12:25;1.74;66.05
70534;SHT31;58088;51.186;17.130;2023-02-08T09:14:52;1.76;66.11
70534;SHT31;58088;51.186;17.130;2023-02-08T09:17:18;1.81;66.12
70534;SHT31;58088;51.186;17.130;2023-02-08T09:19:44;1.85;66.08
70534;SHT31;58088;51.186;17.130;2023-02-08T09:22:12;1.88;66.10
70534;SHT31;58088;51.186;17.130;2023-02-08T09:24:38;1.89;66.11
70534;SHT31;58088;51.186;17.130;2023-02-08T09:27:04;1.93;66.03
70534;SHT31;58088;51.186;17.130;2023-02-08T09:29:31;1.94;65.90
70534;SHT31;58088;51.186;17.130;2023-02-08T09:31:58;2.00;65.91
70534;SHT31;58088;51.186;17.130;2023-02-08T09:34:26;2.02;65.86
70534;SHT31;58088;51.186;17.130;2023-02-08T09:36:52;2.01;65.83
70534;SHT31;58088;51.186;17.130;2023-02-08T09:39:20;2.02;65.87
70534;SHT31;58088;51.186;17.130;2023-02-08T09:48:17;2.11;65.70
70534;SHT31;58088;51.186;17.130;2023-02-08T09:50:53;2.12;65.64
70534;SHT31;58088;51.186;17.130;2023-02-08T09:53:32;2.15;65.77
70534;SHT31;58088;51.186;17.130;2023-02-08T09:56:05;2.18;65.76
70534;SHT31;58088;51.186;17.130;2023-02-08T09:58:45;2.20;65.63
70534;SHT31;58088;51.186;17.130;2023-02-08T10:01:17;2.19;65.60
70534;SHT31;58088;51.186;17.130;2023-02-08T10:03:51;2.17;65.58
70534;SHT31;58088;51.186;17.130;2023-02-08T10:06:24;2.19;65.50
70534;SHT31;58088;51.186;17.130;2023-02-08T10:08:51;2.22;65.51
70534;SHT31;58088;51.186;17.130;2023-02-08T10:20:03;2.37;65.38
70534;SHT31;58088;51.186;17.130;2023-02-08T10:28:45;2.52;65.16
70534;SHT31;58088;51.186;17.130;2023-02-08T10:37:31;2.54;65.07
70534;SHT31;58088;51.186;17.130;2023-02-08T10:49:07;2.57;65.08
70534;SHT31;58088;51.186;17.130;2023-02-08T10:52:04;2.62;65.07
70534;SHT31;58088;51.186;17.130;2023-02-08T10:54:32;2.65;65.03
70534;SHT31;58088;51.186;17.130;2023-02-08T10:57:00;2.67;64.94
70534;SHT31;58088;51.186;17.130;2023-02-08T11:02:25;2.74;65.09
70534;SHT31;58088;51.186;17.130;2023-02-08T11:05:05;2.76;65.00
70534;SHT31;58088;51.186;17.130;2023-02-08T11:07:33;2.80;65.03
70534;SHT31;58088;51.186;17.130;2023-02-08T11:12:55;2.93;65.00
70534;SHT31;58088;51.186;17.130;2023-02-08T11:18:32;2.95;64.78
70534;SHT31;58088;51.186;17.130;2023-02-08T11:21:05;2.91;64.84
70534;SHT31;58088;51.186;17.130;2023-02-08T11:23:55;2.85;64.97
70534;SHT31;58088;51.186;17.130;2023-02-08T11:31:39;2.96;64.90
70534;SHT31;58088;51.186;17.130;2023-02-08T11:34:37;2.91;64.94
70534;SHT31;58088;51.186;17.130;2023-02-08T11:37:14;2.97;65.01
70534;SHT31;58088;51.186;17.130;2023-02-08T11:39:56;3.05;64.89
70534;SHT31;58088;51.186;17.130;2023-02-08T11:42:25;3.10;64.74
70534;SHT31;58088;51.186;17.130;2023-02-08T11:44:58;3.13;64.73
70534;SHT31;58088;51.186;17.130;2023-02-08T11:47:30;3.17;64.63
70534;SHT31;58088;51.186;17.130;2023-02-08T11:50:00;3.23;64.56
70534;SHT31;58088;51.186;17.130;2023-02-08T11:52:37;3.28;64.46
70534;SHT31;58088;51.186;17.130;2023-02-08T11:55:41;3.31;64.37
70534;SHT31;58088;51.186;17.130;2023-02-08T12:00:39;3.41;64.28
70534;SHT31;58088;51.186;17.130;2023-02-08T12:05:55;3.44;64.20
70534;SHT31;58088;51.186;17.130;2023-02-08T12:11:30;3.51;63.88
70534;SHT31;58088;51.186;17.130;2023-02-08T12:16:43;3.47;63.63
70534;SHT31;58088;51.186;17.130;2023-02-08T12:22:47;3.64;63.64
70534;SHT31;58088;51.186;17.130;2023-02-08T12:31:50;3.65;63.48
70534;SHT31;58088;51.186;17.130;2023-02-08T12:37:14;3.71;63.33
70534;SHT31;58088;51.186;17.130;2023-02-08T12:49:45;3.63;62.80
70534;SHT31;58088;51.186;17.130;2023-02-08T12:52:30;3.67;62.66
70534;SHT31;58088;51.186;17.130;2023-02-08T12:58:18;3.65;62.71
70534;SHT31;58088;51.186;17.130;2023-02-08T13:01:08;3.65;62.59
70534;SHT31;58088;51.186;17.130;2023-02-08T13:04:01;3.61;62.68
70534;SHT31;58088;51.186;17.130;2023-02-08T13:06:37;3.66;62.70
70534;SHT31;58088;51.186;17.130;2023-02-08T13:11:59;3.65;62.39
70534;SHT31;58088;51.186;17.130;2023-02-08T13:14:37;3.65;62.26
70534;SHT31;58088;51.186;17.130;2023-02-08T13:20:04;3.61;62.32
70534;SHT31;58088;51.186;17.130;2023-02-08T13:22:45;3.64;62.16
70534;SHT31;58088;51.186;17.130;2023-02-08T13:25:33;3.61;61.98
70534;SHT31;58088;51.186;17.130;2023-02-08T13:28:05;3.60;61.78
70534;SHT31;58088;51.186;17.130;2023-02-08T13:30:36;3.65;61.59
70534;SHT31;58088;51.186;17.130;2023-02-08T13:33:15;3.65;61.37
70534;SHT31;58088;51.186;17.130;2023-02-08T13:35:51;3.62;61.12
70534;SHT31;58088;51.186;17.130;2023-02-08T13:38:29;3.60;61.16
70534;SHT31;58088;51.186;17.130;2023-02-08T13:41:00;3.58;61.19
70534;SHT31;58088;51.186;17.130;2023-02-08T13:43:42;3.59;61.10
70534;SHT31;58088;51.186;17.130;2023-02-08T13:46:19;3.63;61.20
70534;SHT31;58088;51.186;17.130;2023-02-08T13:48:50;3.60;61.26
70534;SHT31;58088;51.186;17.130;2023-02-08T13:56:37;3.62;61.41
70534;SHT31;58088;51.186;17.130;2023-02-08T14:04:50;3.65;61.45
70534;SHT31;58088;51.186;17.130;2023-02-08T14:10:20;3.62;61.02
70534;SHT31;58088;51.186;17.130;2023-02-08T14:18:59;3.47;60.66
70534;SHT31;58088;51.186;17.130;2023-02-08T14:21:31;3.50;60.46
70534;SHT31;58088;51.186;17.130;2023-02-08T14:24:05;3.52;60.33
70534;SHT31;58088;51.186;17.130;2023-02-08T14:26:42;3.53;60.23
70534;SHT31;58088;51.186;17.130;2023-02-08T14:29:15;3.55;60.17
70534;SHT31;58088;51.186;17.130;2023-02-08T14:31:50;3.54;60.14
70534;SHT31;58088;51.186;17.130;2023-02-08T14:34:33;3.54;60.12
70534;SHT31;58088;51.186;17.130;2023-02-08T14:37:05;3.56;60.00
70534;SHT31;58088;51.186;17.130;2023-02-08T14:45:31;3.59;60.08
70534;SHT31;58088;51.186;17.130;2023-02-08T14:51:21;3.55;60.25
70534;SHT31;58088;51.186;17.130;2023-02-08T14:53:57;3.46;60.38
70534;SHT31;58088;51.186;17.130;2023-02-08T14:56:55;3.44;60.46
70534;SHT31;58088;51.186;17.130;2023-02-08T14:59:27;3.46;60.52
70534;SHT31;58088;51.186;17.130;2023-02-08T15:02:02;3.46;60.47
70534;SHT31;58088;51.186;17.130;2023-02-08T15:04:44;3.42;60.58
70534;SHT31;58088;51.186;17.130;2023-02-08T15:10:22;3.44;60.80
70534;SHT31;58088;51.186;17.130;2023-02-08T15:12:52;3.58;61.75
70534;SHT31;58088;51.186;17.130;2023-02-08T15:18:04;3.78;60.62
70534;SHT31;58088;51.186;17.130;2023-02-08T15:20:39;3.76;60.49
70534;SHT31;58088;51.186;17.130;2023-02-08T15:23:20;3.73;60.43
70534;SHT31;58088;51.186;17.130;2023-02-08T15:25:56;3.68;60.42
70534;SHT31;58088;51.186;17.130;2023-02-08T15:28:34;3.67;60.42
70534;SHT31;58088;51.186;17.130;2023-02-08T15:31:08;3.66;60.41
70534;SHT31;58088;51.186;17.130;2023-02-08T15:33:45;3.63;60.44
70534;SHT31;58088;51.186;17.130;2023-02-08T15:36:16;3.60;60.47
70534;SHT31;58088;51.186;17.130;2023-02-08T15:38:46;3.58;60.48
70534;SHT31;58088;51.186;17.130;2023-02-08T15:41:14;3.56;60.49
70534;SHT31;58088;51.186;17.130;2023-02-08T15:43:50;3.47;60.50
70534;SHT31;58088;51.186;17.130;2023-02-08T15:46:46;3.41;60.73
70534;SHT31;58088;51.186;17.130;2023-02-08T15:49:22;3.37;60.84
70534;SHT31;58088;51.186;17.130;2023-02-08T15:55:00;3.17;61.32
70534;SHT31;58088;51.186;17.130;2023-02-08T16:00:50;2.95;61.88
70534;SHT31;58088;51.186;17.130;2023-02-08T16:03:03;2.86;61.90
70534;SHT31;58088;51.186;17.130;2023-02-08T16:05:34;2.80;62.01
70534;SHT31;58088;51.186;17.130;2023-02-08T16:08:01;2.77;62.09
70534;SHT31;58088;51.186;17.130;2023-02-08T16:13:21;2.68;62.34
70534;SHT31;58088;51.186;17.130;2023-02-08T16:15:55;2.60;62.50
70534;SHT31;58088;51.186;17.130;2023-02-08T16:18:40;2.53;62.73
70534;SHT31;58088;51.186;17.130;2023-02-08T16:23:58;2.38;62.96
70534;SHT31;58088;51.186;17.130;2023-02-08T16:26:34;2.31;63.13
70534;SHT31;58088;51.186;17.130;2023-02-08T16:31:55;2.23;63.25
70534;SHT31;58088;51.186;17.130;2023-02-08T16:34:26;2.19;63.46
70534;SHT31;58088;51.186;17.130;2023-02-08T16:36:53;2.13;63.67
70534;SHT31;58088;51.186;17.130;2023-02-08T16:42:19;2.03;63.70
70534;SHT31;58088;51.186;17.130;2023-02-08T16:47:40;1.93;63.88
70534;SHT31;58088;51.186;17.130;2023-02-08T16:50:16;1.87;63.99
70534;SHT31;58088;51.186;17.130;2023-02-08T16:52:49;1.82;64.09
70534;SHT31;58088;51.186;17.130;2023-02-08T16:55:30;1.79;64.13
70534;SHT31;58088;51.186;17.130;2023-02-08T16:58:01;1.76;64.25
70534;SHT31;58088;51.186;17.130;2023-02-08T17:00:28;1.73;64.22
70534;SHT31;58088;51.186;17.130;2023-02-08T17:02:59;1.68;64.27
70534;SHT31;58088;51.186;17.130;2023-02-08T17:05:27;1.64;64.23
70534;SHT31;58088;51.186;17.130;2023-02-08T17:08:02;1.58;64.33
70534;SHT31;58088;51.186;17.130;2023-02-08T17:10:33;1.50;64.58
70534;SHT31;58088;51.186;17.130;2023-02-08T17:13:01;1.46;64.69
70534;SHT31;58088;51.186;17.130;2023-02-08T17:15:28;1.40;64.72
70534;SHT31;58088;51.186;17.130;2023-02-08T17:17:54;1.37;64.96
70534;SHT31;58088;51.186;17.130;2023-02-08T17:20:26;1.35;65.14
70534;SHT31;58088;51.186;17.130;2023-02-08T17:23:01;1.33;65.30
70534;SHT31;58088;51.186;17.130;2023-02-08T17:25:31;1.29;65.53
70534;SHT31;58088;51.186;17.130;2023-02-08T17:28:10;1.25;65.62
70534;SHT31;58088;51.186;17.130;2023-02-08T17:30:43;1.23;65.76
70534;SHT31;58088;51.186;17.130;2023-02-08T17:33:11;1.21;65.90
70534;SHT31;58088;51.186;17.130;2023-02-08T17:35:45;1.20;65.99
70534;SHT31;58088;51.186;17.130;2023-02-08T17:38:15;1.19;66.08
70534;SHT31;58088;51.186;17.130;2023-02-08T17:40:43;1.17;66.17
70534;SHT31;58088;51.186;17.130;2023-02-08T17:43:11;1.14;66.34
70534;SHT31;58088;51.186;17.130;2023-02-08T17:45:39;1.12;66.48
70534;SHT31;58088;51.186;17.130;2023-02-08T17:48:08;1.09;66.54
70534;SHT31;58088;51.186;17.130;2023-02-08T17:50:39;1.07;66.52
70534;SHT31;58088;51.186;17.130;2023-02-08T17:53:16;1.02;66.56
70534;SHT31;58088;51.186;17.130;2023-02-08T17:55:44;0.95;66.62
70534;SHT31;58088;51.186;17.130;2023-02-08T17:58:11;0.91;66.74
70534;SHT31;58088;51.186;17.130;2023-02-08T18:00:40;0.88;66.74
70534;SHT31;58088;51.186;17.130;2023-02-08T18:03:06;0.86;66.73
70534;SHT31;58088;51.186;17.130;2023-02-08T18:05:34;0.85;66.76
70534;SHT31;58088;51.186;17.130;2023-02-08T18:08:02;0.81;66.85
70534;SHT31;58088;51.186;17.130;2023-02-08T18:10:29;0.82;66.89
70534;SHT31;58088;51.186;17.130;2023-02-08T18:12:55;0.83;66.85
70534;SHT31;58088;51.186;17.130;2023-02-08T18:15:24;0.82;66.80
70534;SHT31;58088;51.186;17.130;2023-02-08T18:17:50;0.81;66.80
70534;SHT31;58088;51.186;17.130;2023-02-08T18:20:21;0.80;66.80
70534;SHT31;58088;51.186;17.130;2023-02-08T18:22:51;0.79;66.82
70534;SHT31;58088;51.186;17.130;2023-02-08T18:25:21;0.78;66.83
70534;SHT31;58088;51.186;17.130;2023-02-08T18:27:48;0.80;66.89
70534;SHT31;58088;51.186;17.130;2023-02-08T18:30:15;0.80;66.97
70534;SHT31;58088;51.186;17.130;2023-02-08T18:32:42;0.80;67.00
70534;SHT31;58088;51.186;17.130;2023-02-08T18:35:10;0.80;66.99
70534;SHT31;58088;51.186;17.130;2023-02-08T18:37:38;0.82;67.00
70534;SHT31;58088;51.186;17.130;2023-02-08T18:40:06;0.84;66.95
70534;SHT31;58088;51.186;17.130;2023-02-08T18:42:36;0.84;66.95
70534;SHT31;58088;51.186;17.130;2023-02-08T18:45:04;0.81;66.99
70534;SHT31;58088;51.186;17.130;2023-02-08T18:47:31;0.82;67.08
70534;SHT31;58088;51.186;17.130;2023-02-08T18:50:01;0.84;67.07
70534;SHT31;58088;51.186;17.130;2023-02-08T18:52:29;0.81;67.11
70534;SHT31;58088;51.186;17.130;2023-02-08T18:54:56;0.80;67.11
70534;SHT31;58088;51.186;17.130;2023-02-08T18:57:27;0.78;67.14
70534;SHT31;58088;51.186;17.130;2023-02-08T18:59:55;0.78;67.20
70534;SHT31;58088;51.186;17.130;2023-02-08T19:02:22;0.79;67.19
70534;SHT31;58088;51.186;17.130;2023-02-08T19:04:51;0.81;67.10
70534;SHT31;58088;51.186;17.130;2023-02-08T19:07:19;0.80;67.09
70534;SHT31;58088;51.186;17.130;2023-02-08T19:09:46;0.81;67.08